Shawnee, Kansas
Current Conditions -  °F | °C
As of 10:54 PM on Friday 24 Oct 2014 (Local Time) from KMKC Reporting Station
Clear Clear  
Wind Chill: 68°   Ceiling: Unl
Heat Index: 68°   Visibility: 10mi
Dew Point: 61°   Wind: 3mph
Humidity: 78%   Direction: 240°WSW
Pressure: 29.99"   Gusts: NA
Location:  39.02°N, 94.71°W
Report Text: KMKC 250354Z 24003KT 10SM CLR 20/16 A2999 RMK AO2 SLP150 T02000161
Loading
Personal Weather Stations






























Interactive Weather Map
Tropical Storm Tracking
New forecast layout! Learn more

10-Day Weather Forecast

Advertisements
Track Severe Weather on mobile